Normed Antwerpen — V2DG9 — position and weather

sailwx.info

Track history (hours):
 
Tides and Currents Weather Stations Pressure Air Temp Water Temp Dewpoint Dewpoint Depression Visibility Wind Speed Wind Dir Waves Ship Positions

Normed Antwerpen

Last reported at 2017-Jun-28 17:00 UTC. Time now 2017-Jun-29 14:05 UTC.
Position N 36°48' E 034°39'.

Length 130 m; draft 6.2 m.

Type: Ship. MMSI: 305210993.

Date/timePositionNaut miles runAvg speedWind from/ knotsBaromVisibWave heightAir tempDewpointWater temp
2017-Jun-28 17:00N 36°48' E 034°39'2 0.1
2017-Jun-27 18:28N 36°46' E 034°38'0 0.0
2017-Jun-26 19:37N 36°46' E 034°38'0 0.0
2017-Jun-26 19:24N 36°46' E 034°38'0 0.0
2017-Jun-26 17:42N 36°46' E 034°38'0 0.0
2017-Jun-26 14:59N 36°46' E 034°38'0 0.0
2017-Jun-26 14:28N 36°46' E 034°38'0 0.0
2017-Jun-26 13:28N 36°46' E 034°38'0 0.0
2017-Jun-26 12:55N 36°46' E 034°38'0 0.0
2017-Jun-26 12:30N 36°46' E 034°38'0 0.0
2017-Jun-26 11:09N 36°46' E 034°38'0 0.0
2017-Jun-26 11:00N 36°46' E 034°38'0 0.0
2017-Jun-25 16:01N 36°46' E 034°38'0 0.0
2017-Jun-25 15:58N 36°46' E 034°38'0 0.0
2017-Jun-25 15:30N 36°46' E 034°38'0 0.0
2017-Jun-25 14:54N 36°46' E 034°38'0 0.0
2017-Jun-25 14:15N 36°46' E 034°38'0 0.1
2017-Jun-25 11:39N 36°46' E 034°38'1 3.0
2017-Jun-25 11:22N 36°45' E 034°38'510.9
2017-Jun-25 10:57N 36°42' E 034°34'12811.3
2017-Jun-24 23:37N 35°58' E 032°05'112.2
2017-Jun-24 23:30N 35°58' E 032°03'612.1
2017-Jun-24 22:59N 35°59' E 031°55'1312.2
2017-Jun-24 21:57N 35°59' E 031°40'512.0
2017-Jun-24 21:30N 35°59' E 031°33'612.0
2017-Jun-24 21:00N 35°60' E 031°26'612.0
2017-Jun-24 20:30N 35°60' E 031°18'612.2
2017-Jun-24 20:00N 36°00' E 031°11'712.4
2017-Jun-24 19:25N 36°00' E 031°02'512.3
2017-Jun-24 19:00N 36°01' E 030°56'612.4
2017-Jun-24 18:30N 36°01' E 030°48'612.4
2017-Jun-24 18:00N 36°01' E 030°40'612.3
2017-Jun-24 17:30N 36°02' E 030°33'612.1
2017-Jun-24 16:59N 36°02' E 030°25'  
2017-Jun-20 16:44N 37°38' E 024°04'312.9
2017-Jun-20 16:30N 37°35' E 024°03'  
Track history (hours):
 
Tides and Currents Weather Stations Pressure Air Temp Water Temp Dewpoint Dewpoint Depression Visibility Wind Speed Wind Dir Waves Ship Positions

Normed Antwerpen

Last reported at 2017-Jun-28 17:00 UTC. Time now 2017-Jun-29 14:05 UTC.
Position N 36°48' E 034°39'.

Length 130 m; draft 6.2 m.

Type: Ship. MMSI: 305210993.

Date/timePositionNaut miles runAvg speedWind from/ knotsBaromVisibWave heightAir tempDewpointWater temp
2017-Jun-28 17:00N 36°48' E 034°39'2 0.1
2017-Jun-27 18:28N 36°46' E 034°38'0 0.0
2017-Jun-26 19:37N 36°46' E 034°38'0 0.0
2017-Jun-26 19:24N 36°46' E 034°38'0 0.0
2017-Jun-26 17:42N 36°46' E 034°38'0 0.0
2017-Jun-26 14:59N 36°46' E 034°38'0 0.0
2017-Jun-26 14:28N 36°46' E 034°38'0 0.0
2017-Jun-26 13:28N 36°46' E 034°38'0 0.0
2017-Jun-26 12:55N 36°46' E 034°38'0 0.0
2017-Jun-26 12:30N 36°46' E 034°38'0 0.0
2017-Jun-26 11:09N 36°46' E 034°38'0 0.0
2017-Jun-26 11:00N 36°46' E 034°38'0 0.0
2017-Jun-25 16:01N 36°46' E 034°38'0 0.0
2017-Jun-25 15:58N 36°46' E 034°38'0 0.0
2017-Jun-25 15:30N 36°46' E 034°38'0 0.0
2017-Jun-25 14:54N 36°46' E 034°38'0 0.0
2017-Jun-25 14:15N 36°46' E 034°38'0 0.1
2017-Jun-25 11:39N 36°46' E 034°38'1 3.0
2017-Jun-25 11:22N 36°45' E 034°38'510.9
2017-Jun-25 10:57N 36°42' E 034°34'12811.3
2017-Jun-24 23:37N 35°58' E 032°05'112.2
2017-Jun-24 23:30N 35°58' E 032°03'612.1
2017-Jun-24 22:59N 35°59' E 031°55'1312.2
2017-Jun-24 21:57N 35°59' E 031°40'512.0
2017-Jun-24 21:30N 35°59' E 031°33'612.0
2017-Jun-24 21:00N 35°60' E 031°26'612.0
2017-Jun-24 20:30N 35°60' E 031°18'612.2
2017-Jun-24 20:00N 36°00' E 031°11'712.4
2017-Jun-24 19:25N 36°00' E 031°02'512.3
2017-Jun-24 19:00N 36°01' E 030°56'612.4
2017-Jun-24 18:30N 36°01' E 030°48'612.4
2017-Jun-24 18:00N 36°01' E 030°40'612.3
2017-Jun-24 17:30N 36°02' E 030°33'612.1
2017-Jun-24 16:59N 36°02' E 030°25'  
2017-Jun-20 16:44N 37°38' E 024°04'312.9
2017-Jun-20 16:30N 37°35' E 024°03'  

Dump ship's entire track history